Portada
METAR-TAF:

METAR-TAF

Aeropuertos :

Tongatapu, Tonga

Aeropuerto Internacional Fua'amotu

latitud: 21-14S, longitud: 175-09W, altitud: 38 m

Observación

El informe se hizo hace 53 minutos, a las 01:00 UTC
Viento 9 kt del sur
Temperatura 24°C
Humedad 65%
Presión 1015 hPa
Visibilidad 10 km o más
Escasas nubes a una altura de 1600 ft
Nubes dispersas a una altura de 4500 ft
Cielo nuboso a una altura de 14000 ft

METAR: NFTF 280100Z 19009KT 9999 FEW016 SCT045 BKN140 24/17 Q1015

Hora: 14:53 (01:53 UTC)

Pronóstico

El informe se hizo hace 2 horas y 24 minutos, a las 23:29 UTC
Pronóstico válido del 28 a las 00 UTC al 28 a las 24 UTC
Viento 8 kt del sur-sureste
Visibilidad 10 km o más
Escasas nubes a una altura de 1600 ft
Nubes dispersas a una altura de 4000 ft

TAF: NFTF 272329Z 2800/2824 16008KT 9999 FEW016 SCT040

Observaciones y pronósticos meteorológicos de más de 4000 aeropuertos (mensajes METAR y TAF).

Los puntos amarillos y rojos representan las estaciones disponibles.

Ponga el ratón en el punto deseado para ver el nombre de la estación.

Haga clic para ver las observaciones y los pronósticos meteorológicos.

Para cambiar el mapa : haga clic en los botones verdes con una cruz de color negro para hacer un zoom, en el botón verde con un guión para alejar o en las flechas verdes para mapas adyacentes.


METAR-TAF: